Time;durP1;ratioP1;P1;durP2;ratioP2;P2;SDS_P1;SDS_P2;PMS_P1;PMS_P2;Temp;Humidity;BMP_temperature;BMP_pressure;BME280_temperature;BME280_humidity;BME280_pressure;Samples;Min_cycle;Max_cycle;Signal;HPM_P1;HPM_P2
2022/09/10 00:00:17;;;;;;;;;;;17.70;54.20;;;13.68;72.75;95585.09;4994003;28;20395;-46
2022/09/10 00:02:46;;;;;;;;;;;17.70;54.10;;;13.69;72.67;95582.13;4993611;28;19917;-50
2022/09/10 00:05:14;;;;;;;;;;;17.70;54.10;;;13.68;72.84;95583.22;4991253;28;20055;-46
2022/09/10 00:07:41;;;;;;;;;;;17.70;54.10;;;13.72;73.04;95588.78;4992190;28;19917;-47
2022/09/10 00:10:10;;;;;;;;;;;17.70;54.10;;;13.63;73.17;95592.13;4991621;28;19971;-47
2022/09/10 00:12:42;;;;;;;;;;;17.70;54.20;;;13.68;72.70;95593.13;4993055;28;19913;-48
2022/09/10 00:15:09;;;;;;;;;;;17.70;54.20;;;13.71;73.08;95585.34;4989457;28;19924;-49
2022/09/10 00:17:35;;;;;;;;;;;17.70;54.20;;;13.68;73.01;95593.13;4985701;28;19914;-47
2022/09/10 00:20:02;;;;;;;;;;;17.70;54.20;;;13.73;73.43;95585.06;4993423;28;20509;-46
2022/09/10 00:22:33;;;;;;;;;;;17.70;54.20;;;13.65;73.47;95587.25;5002543;28;20478;-47
2022/09/10 00:24:58;;;;;;;;;;;17.70;54.20;;;13.69;73.66;95579.44;5012626;28;19917;-46
2022/09/10 00:27:25;;;;;;;;;;;17.70;54.30;;;13.73;73.62;95585.84;4975257;28;19917;-47
2022/09/10 00:29:54;;;;;;;;;;;17.70;54.20;;;13.72;73.85;95592.28;4975466;28;19916;-48
2022/09/10 00:32:23;;;;;;;;;;;17.70;54.20;;;13.68;73.87;95577.06;4992563;28;19917;-46
2022/09/10 00:34:49;;;;;;;;;;;17.70;54.30;;;13.68;73.85;95577.88;4988539;28;19909;-46
2022/09/10 00:37:15;;;;;;;;;;;17.70;54.30;;;13.70;74.24;95580.28;4991892;28;19940;-47
2022/09/10 00:39:41;;;;;;;;;;;17.70;54.30;;;13.66;74.45;95577.34;4974426;28;19910;-46
2022/09/10 00:42:10;;;;;;;;;;;17.70;54.30;;;13.68;74.23;95577.06;4974824;28;20015;-47
2022/09/10 00:44:38;;;;;;;;;;;17.70;54.40;;;13.68;74.46;95571.72;4975483;28;20368;-47
2022/09/10 00:47:22;;;;;;;;;;;17.70;54.40;;;13.67;74.56;95570.13;4991484;28;19910;-45
2022/09/10 00:50:12;;;;;;;;;;;17.70;54.40;;;13.64;74.79;95577.63;4959118;28;19913;-46
2022/09/10 00:52:46;;;;;;;;;;;17.70;54.50;;;13.65;75.01;95573.88;4974903;28;19931;-46
2022/09/10 00:55:14;;;;;;;;;;;17.70;54.60;;;13.64;75.04;95569.63;4975529;28;19909;-46
2022/09/10 00:57:49;;;;;;;;;;;17.70;54.60;;;13.66;75.20;95569.31;4973774;28;19913;-46
2022/09/10 01:00:16;;;;;;;;;;;17.70;54.70;;;13.65;75.15;95560.50;4976019;28;19917;-46
2022/09/10 01:02:44;;;;;;;;;;;17.70;54.80;;;13.69;75.45;95562.59;4973766;28;19909;-47
2022/09/10 01:05:12;;;;;;;;;;;17.70;54.80;;;13.69;75.16;95565.28;4991421;28;19913;-46
2022/09/10 01:07:38;;;;;;;;;;;17.70;54.70;;;13.67;75.56;95562.09;4975575;28;20316;-47
2022/09/10 01:10:31;;;;;;;;;;;17.70;54.80;;;13.61;75.91;95564.03;4974118;28;19955;-46
2022/09/10 01:13:35;;;;;;;;;;;17.70;54.80;;;13.60;76.27;95557.88;4969381;28;19920;-49
2022/09/10 01:16:24;;;;;;;;;;;17.70;55.00;;;13.60;76.53;95547.19;4990292;28;19920;-45
2022/09/10 01:19:25;;;;;;;;;;;17.70;55.00;;;13.59;76.61;95547.44;4980571;28;19944;-46
2022/09/10 01:22:39;;;;;;;;;;;17.70;55.00;;;13.60;76.41;95555.22;4957219;28;20432;-49
2022/09/10 01:25:38;;;;;;;;;;;17.60;55.10;;;13.56;76.65;95559.50;4957322;28;19910;-47
2022/09/10 01:29:07;;;;;;;;;;;17.60;55.10;;;13.49;76.92;95556.38;5010607;28;20070;-46
2022/09/10 01:32:20;;;;;;;;;;;17.60;55.20;;;13.47;77.68;95558.53;4977157;28;19913;-46
2022/09/10 01:35:26;;;;;;;;;;;17.50;55.40;;;13.50;77.69;95557.19;5006726;28;20067;-46
2022/09/10 01:38:10;;;;;;;;;;;17.50;55.60;;;13.54;77.49;95561.69;4999396;28;19924;-46
2022/09/10 01:40:37;;;;;;;;;;;17.50;55.60;;;13.57;77.54;95549.59;4998768;28;20341;-45
2022/09/10 01:43:09;;;;;;;;;;;17.60;55.70;;;13.57;77.53;95550.44;4993886;28;20007;-45
2022/09/10 01:46:03;;;;;;;;;;;17.60;55.80;;;13.60;77.41;95544.50;4989506;28;19921;-46
2022/09/10 01:48:47;;;;;;;;;;;17.60;55.70;;;13.65;77.48;95539.06;5011648;28;19916;-46
2022/09/10 01:51:40;;;;;;;;;;;17.70;55.80;;;13.62;77.70;95547.69;5010549;28;22071;-46
2022/09/10 01:54:24;;;;;;;;;;;17.60;56.00;;;13.64;78.64;95550.88;5011412;28;20326;-46
2022/09/10 01:57:38;;;;;;;;;;;17.70;56.00;;;13.64;80.83;95550.88;5011093;28;20349;-46
2022/09/10 02:00:16;;;;;;;;;;;17.60;56.00;;;13.57;81.89;95545.06;4934460;28;19914;-47
2022/09/10 02:03:00;;;;;;;;;;;17.50;56.00;;;13.55;83.19;95543.75;4993636;28;19909;-45
2022/09/10 02:05:30;;;;;;;;;;;17.50;56.10;;;13.42;83.67;95550.56;4991899;28;19916;-46
2022/09/10 02:08:25;;;;;;;;;;;17.30;56.20;;;13.36;85.33;95552.50;4994105;28;20386;-46
2022/09/10 02:11:14;;;;;;;;;;;17.20;56.40;;;13.29;86.21;95552.03;4992052;28;19909;-46
2022/09/10 02:13:41;;;;;;;;;;;17.10;56.60;;;13.20;86.66;95546.47;4995700;28;19916;-52
2022/09/10 02:16:51;;;;;;;;;;;17.10;57.40;;;13.17;87.07;95548.91;4992172;28;19923;-48
2022/09/10 02:19:20;;;;;;;;;;;16.90;57.20;;;13.15;87.46;95545.72;4965700;28;19926;-47
2022/09/10 02:21:46;;;;;;;;;;;16.90;57.10;;;13.07;87.72;95541.00;4994017;28;19910;-47
2022/09/10 02:24:12;;;;;;;;;;;16.90;57.40;;;12.98;88.56;95542.66;4986310;28;19963;-48
2022/09/10 02:26:43;;;;;;;;;;;16.80;57.30;;;12.92;89.11;95549.94;4985899;28;20350;-48
2022/09/10 02:29:16;;;;;;;;;;;16.80;57.60;;;12.87;89.90;95544.59;4971260;28;20284;-46
2022/09/10 02:31:42;;;;;;;;;;;16.70;57.70;;;12.85;89.76;95547.56;4992455;28;19920;-46
2022/09/10 02:34:11;;;;;;;;;;;16.70;57.90;;;12.84;90.41;95548.63;5008455;28;19913;-46
2022/09/10 02:36:37;;;;;;;;;;;16.60;57.90;;;12.75;90.74;95544.97;4992394;28;19917;-47
2022/09/10 02:39:12;;;;;;;;;;;16.70;58.10;;;12.77;91.16;95544.69;5005953;28;19916;-49
2022/09/10 02:41:40;;;;;;;;;;;16.70;58.30;;;12.77;91.20;95548.16;5024535;28;19922;-46
2022/09/10 02:44:09;;;;;;;;;;;16.60;58.30;;;12.79;91.75;95548.69;4992995;28;20355;-45
2022/09/10 02:46:44;;;;;;;;;;;16.60;58.40;;;12.78;91.67;95552.41;5008006;28;20363;-45
2022/09/10 02:49:16;;;;;;;;;;;16.60;59.10;;;12.73;92.31;95555.94;4992643;28;19916;-48
2022/09/10 02:51:51;;;;;;;;;;;16.60;58.50;;;12.70;91.93;95555.69;5001864;28;19909;-52
2022/09/10 02:54:27;;;;;;;;;;;16.60;58.70;;;12.68;92.45;95545.28;4996820;28;20047;-52
2022/09/10 02:56:55;;;;;;;;;;;16.60;58.80;;;12.69;92.38;95540.72;4989054;28;19921;-53
2022/09/10 02:59:23;;;;;;;;;;;16.60;58.80;;;12.63;92.85;95539.16;5005404;28;20272;-47
2022/09/10 03:01:53;;;;;;;;;;;16.60;59.00;;;12.61;92.81;95546.69;5004672;28;19913;-47
2022/09/10 03:04:19;;;;;;;;;;;16.50;59.20;;;12.63;91.97;95548.00;5008181;28;20272;-48
2022/09/10 03:06:48;;;;;;;;;;;16.60;59.40;;;12.63;92.46;95548.00;5009536;28;19924;-46
2022/09/10 03:09:21;;;;;;;;;;;16.60;59.60;;;12.70;92.80;95547.69;4989081;28;19917;-50
2022/09/10 03:11:47;;;;;;;;;;;16.50;59.50;;;12.67;92.57;95545.56;4985555;28;19959;-46
2022/09/10 03:14:19;;;;;;;;;;;16.60;59.70;;;12.70;92.42;95551.16;4985632;28;19911;-49
2022/09/10 03:16:46;;;;;;;;;;;16.60;59.80;;;12.74;92.22;95554.84;5001581;28;20004;-48
2022/09/10 03:19:16;;;;;;;;;;;16.60;59.80;;;12.76;92.45;95553.81;5013314;28;19948;-47
2022/09/10 03:21:46;;;;;;;;;;;16.60;59.80;;;12.78;92.50;95557.75;5010454;28;19967;-48
2022/09/10 03:24:15;;;;;;;;;;;16.70;59.90;;;12.76;92.69;95551.91;5013002;28;19936;-46
2022/09/10 03:26:43;;;;;;;;;;;16.70;59.90;;;12.79;92.60;95550.56;4948690;28;1848467;-46
2022/09/10 03:29:08;;;;;;;;;;;16.70;59.80;;;12.81;92.99;95545.72;4994975;28;19912;-48
2022/09/10 03:31:41;;;;;;;;;;;16.70;59.80;;;12.82;93.11;95545.47;4996197;28;19959;-46
2022/09/10 03:34:11;;;;;;;;;;;16.70;59.80;;;12.80;93.11;95542.25;5007846;28;19967;-46
2022/09/10 03:36:39;;;;;;;;;;;16.70;59.80;;;12.80;93.53;95550.28;4996282;28;19917;-46
2022/09/10 03:39:05;;;;;;;;;;;16.70;59.80;;;12.79;93.66;95548.69;5012987;28;19917;-46
2022/09/10 03:41:31;;;;;;;;;;;16.80;59.80;;;12.77;93.00;95542.03;5013189;28;19916;-47
2022/09/10 03:44:10;;;;;;;;;;;16.80;59.90;;;12.80;93.31;95549.47;4996130;28;21080;-47
2022/09/10 03:46:40;;;;;;;;;;;16.80;59.90;;;12.81;93.34;95551.06;4994909;28;20413;-46
2022/09/10 03:49:07;;;;;;;;;;;16.80;59.90;;;12.80;93.42;95552.94;5013682;28;19921;-47
2022/09/10 03:51:34;;;;;;;;;;;16.80;59.90;;;12.81;93.30;95551.84;5012049;28;19962;-46
2022/09/10 03:54:00;;;;;;;;;;;16.80;59.90;;;12.81;93.53;95549.19;5013698;28;20046;-45
2022/09/10 03:56:29;;;;;;;;;;;16.80;59.90;;;12.82;93.79;95552.69;4979384;28;19916;-47
2022/09/10 03:59:00;;;;;;;;;;;16.80;59.90;;;12.79;93.64;95547.91;4994973;28;19909;-46
2022/09/10 04:01:29;;;;;;;;;;;16.80;60.70;;;12.76;93.57;95554.59;5013316;28;19909;-49
2022/09/10 04:03:56;;;;;;;;;;;16.80;60.00;;;12.73;93.29;95547.91;4994552;28;20322;-47
2022/09/10 04:06:34;;;;;;;;;;;16.80;60.10;;;12.75;93.48;95555.66;5011856;28;20368;-46
2022/09/10 04:09:00;;;;;;;;;;;16.80;60.10;;;12.72;93.20;95541.00;5012571;28;20291;-46
2022/09/10 04:11:32;;;;;;;;;;;16.70;60.10;;;12.71;93.73;95536.69;4995327;28;19920;-48
2022/09/10 04:13:58;;;;;;;;;;;16.70;60.20;;;12.68;93.40;95533.78;5013098;28;20371;-46
2022/09/10 04:16:27;;;;;;;;;;;16.70;60.30;;;12.65;93.56;95543.16;5012123;28;19916;-46
2022/09/10 04:18:53;;;;;;;;;;;16.70;60.30;;;12.63;93.58;95548.00;4979582;28;20390;-46
2022/09/10 04:21:23;;;;;;;;;;;16.70;60.40;;;12.64;93.59;95546.91;4993582;28;19913;-46
2022/09/10 04:23:55;;;;;;;;;;;16.70;60.50;;;12.61;93.73;95550.16;4995367;28;19909;-46
2022/09/10 04:26:22;;;;;;;;;;;16.60;60.60;;;12.59;93.65;95557.63;4964690;28;19918;-47
2022/09/10 04:28:52;;;;;;;;;;;16.60;60.60;;;12.57;93.45;95553.66;4986506;28;20384;-46
2022/09/10 04:31:21;;;;;;;;;;;16.60;60.70;;;12.59;93.65;95554.16;4992851;28;20256;-46
2022/09/10 04:33:50;;;;;;;;;;;16.60;60.80;;;12.61;93.22;95549.34;4985346;28;20012;-47
2022/09/10 04:36:16;;;;;;;;;;;16.60;60.90;;;12.61;93.17;95544.00;4969982;28;19910;-50
2022/09/10 04:38:42;;;;;;;;;;;16.60;60.90;;;12.59;93.26;95549.63;4979661;28;19974;-50
2022/09/10 04:41:08;;;;;;;;;;;16.60;60.80;;;12.60;93.29;95553.91;4964308;28;19916;-46
2022/09/10 04:43:37;;;;;;;;;;;16.60;60.90;;;12.60;93.28;95548.56;4979666;28;19967;-46
2022/09/10 04:46:03;;;;;;;;;;;16.60;60.80;;;12.61;93.18;95546.69;4982235;28;19944;-46
2022/09/10 04:48:29;;;;;;;;;;;16.60;60.70;;;12.58;93.53;95549.91;4981606;28;20311;-46
2022/09/10 04:50:54;;;;;;;;;;;16.60;60.70;;;12.56;93.77;95546.69;4964878;28;19952;-51
2022/09/10 04:53:20;;;;;;;;;;;16.60;60.70;;;12.56;93.79;95555.50;4981230;28;19951;-46
2022/09/10 04:55:50;;;;;;;;;;;16.70;60.80;;;12.55;94.38;95563.81;4983056;28;19917;-47
2022/09/10 04:58:15;;;;;;;;;;;16.60;60.80;;;12.55;94.93;95563.81;4980175;28;20419;-46
2022/09/10 05:00:41;;;;;;;;;;;16.60;60.80;;;12.57;95.12;95559.00;4978097;28;19909;-46
2022/09/10 05:03:11;;;;;;;;;;;16.60;60.90;;;12.56;95.00;95560.06;4978312;28;20413;-50
2022/09/10 05:05:37;;;;;;;;;;;16.60;60.90;;;12.55;95.29;95561.94;4979296;28;20066;-47
2022/09/10 05:08:04;;;;;;;;;;;16.60;61.00;;;12.58;95.35;95555.25;4981122;28;19932;-46
2022/09/10 05:10:30;;;;;;;;;;;16.60;61.10;;;12.59;95.45;95559.50;4977608;28;20364;-47
2022/09/10 05:12:56;;;;;;;;;;;16.60;62.00;;;12.60;95.19;95563.78;4968716;28;20334;-46
2022/09/10 05:15:22;;;;;;;;;;;16.70;61.30;;;12.58;95.23;95564.06;4974125;28;19909;-47
2022/09/10 05:17:48;;;;;;;;;;;16.70;61.30;;;12.62;95.11;95570.44;4976890;28;20356;-47
2022/09/10 05:20:14;;;;;;;;;;;16.70;61.40;;;12.62;94.76;95565.09;4979887;28;19909;-49
2022/09/10 05:22:41;;;;;;;;;;;16.70;61.50;;;12.65;94.99;95567.22;4976350;28;19909;-46
2022/09/10 05:25:08;;;;;;;;;;;16.80;61.60;;;12.71;94.86;95576.00;4948422;28;20276;-51
2022/09/10 05:27:40;;;;;;;;;;;16.80;61.50;;;12.74;94.42;95570.09;4969761;28;19922;-48
2022/09/10 05:30:07;;;;;;;;;;;16.80;61.60;;;12.79;94.93;95567.41;4963164;28;19920;-47
2022/09/10 05:32:33;;;;;;;;;;;16.90;61.70;;;12.81;94.83;95575.13;4962661;28;20005;-50
2022/09/10 05:35:00;;;;;;;;;;;17.00;61.80;;;12.83;94.38;95575.66;4972103;28;19910;-46
2022/09/10 05:37:26;;;;;;;;;;;17.00;61.90;;;12.90;94.34;95581.47;4969729;28;19929;-48
2022/09/10 05:39:52;;;;;;;;;;;17.00;61.80;;;12.98;94.42;95585.44;4940023;28;19953;-46
2022/09/10 05:42:20;;;;;;;;;;;17.10;61.90;;;13.00;94.24;95583.28;4971038;28;19909;-49
2022/09/10 05:44:46;;;;;;;;;;;17.10;61.90;;;13.04;94.07;95582.44;4971285;28;19914;-49
2022/09/10 05:47:12;;;;;;;;;;;17.20;61.80;;;13.04;93.89;95581.66;4969265;28;19965;-48
2022/09/10 05:49:40;;;;;;;;;;;17.30;61.90;;;13.10;93.90;95584.00;4973413;28;19979;-46
2022/09/10 05:52:06;;;;;;;;;;;17.30;61.80;;;13.11;93.64;95576.78;4956014;28;20238;-47
2022/09/10 05:54:31;;;;;;;;;;;17.30;61.70;;;13.16;93.66;95590.09;4970505;28;19910;-49
2022/09/10 05:56:57;;;;;;;;;;;17.30;61.60;;;13.20;93.70;95578.56;4975755;28;19940;-48
2022/09/10 05:59:23;;;;;;;;;;;17.40;61.70;;;13.19;93.23;95579.66;4968336;28;19936;-47
2022/09/10 06:01:50;;;;;;;;;;;17.30;61.60;;;13.15;92.77;95585.81;4959436;28;19910;-51
2022/09/10 06:04:19;;;;;;;;;;;17.40;61.60;;;13.20;92.60;95588.47;4974159;28;19930;-51
2022/09/10 06:06:46;;;;;;;;;;;17.40;61.60;;;13.23;92.71;95592.47;4972217;28;19913;-48
2022/09/10 06:09:13;;;;;;;;;;;17.40;61.60;;;13.25;92.06;95595.66;4953407;28;20404;-50
2022/09/10 06:11:42;;;;;;;;;;;17.50;61.60;;;13.26;92.45;95598.06;4963735;28;19929;-48
2022/09/10 06:14:07;;;;;;;;;;;17.60;61.60;;;13.29;92.06;95602.88;4971487;28;19917;-49
2022/09/10 06:16:33;;;;;;;;;;;17.60;61.50;;;13.30;92.27;95603.66;4970038;28;19932;-53
2022/09/10 06:19:02;;;;;;;;;;;17.70;61.40;;;13.42;92.04;95598.75;4968955;28;19914;-53
2022/09/10 06:21:28;;;;;;;;;;;17.80;61.30;;;13.51;90.61;95596.25;4954918;28;19909;-55
2022/09/10 06:23:54;;;;;;;;;;;18.00;61.30;;;13.61;89.55;95598.81;4946425;28;23390;-49
2022/09/10 06:26:20;;;;;;;;;;;18.20;61.10;;;13.80;89.70;95607.72;4988054;28;20273;-54
2022/09/10 06:28:48;;;;;;;;;;;18.40;60.90;;;14.00;88.54;95614.72;4987869;28;19929;-52
2022/09/10 06:31:18;;;;;;;;;;;18.60;60.80;;;14.12;88.10;95607.09;4958915;28;19988;-54
2022/09/10 06:33:47;;;;;;;;;;;18.70;60.50;;;14.23;86.55;95607.00;4972816;28;19939;-51
2022/09/10 06:36:14;;;;;;;;;;;18.90;60.40;;;14.31;85.38;95609.81;4990942;28;19909;-50
2022/09/10 06:38:40;;;;;;;;;;;18.90;60.30;;;14.35;85.86;95610.84;4978410;28;19917;-46
2022/09/10 06:41:12;;;;;;;;;;;18.90;60.10;;;14.27;83.36;95611.47;4982921;28;19988;-49
2022/09/10 06:43:42;;;;;;;;;;;19.00;60.10;;;14.28;83.68;95625.66;4974759;28;19944;-47
2022/09/10 06:46:18;;;;;;;;;;;19.00;59.90;;;14.26;83.86;95630.53;4985862;28;19909;-47
2022/09/10 06:48:44;;;;;;;;;;;19.00;59.80;;;14.34;84.70;95632.56;4997219;28;19909;-52
2022/09/10 06:51:12;;;;;;;;;;;19.00;59.70;;;14.35;84.69;95631.47;4968001;28;19913;-48
2022/09/10 06:53:45;;;;;;;;;;;19.00;59.60;;;14.32;84.10;95635.53;4981009;28;20304;-50
2022/09/10 06:56:12;;;;;;;;;;;19.10;59.50;;;14.32;83.96;95632.03;4967389;28;19936;-46
2022/09/10 06:58:39;;;;;;;;;;;19.10;59.40;;;14.46;84.26;95640.19;4982034;28;19923;-48
2022/09/10 07:01:13;;;;;;;;;;;19.20;59.40;;;14.56;84.24;95635.50;4964871;28;20502;-48
2022/09/10 07:03:42;;;;;;;;;;;19.30;59.30;;;14.61;83.16;95634.66;4990026;28;19933;-47
2022/09/10 07:06:16;;;;;;;;;;;19.40;59.30;;;14.68;82.92;95632.41;4990277;28;19955;-46
2022/09/10 07:08:43;;;;;;;;;;;19.50;59.20;;;14.74;82.20;95636.63;4981661;28;20000;-47
2022/09/10 07:11:14;;;;;;;;;;;19.50;59.10;;;14.69;83.01;95630.53;4983459;28;20019;-48
2022/09/10 07:13:43;;;;;;;;;;;19.60;59.60;;;14.74;82.91;95638.50;4990778;28;20055;-47
2022/09/10 07:16:16;;;;;;;;;;;19.60;58.80;;;14.85;82.49;95639.94;4992767;28;20287;-48
2022/09/10 07:18:41;;;;;;;;;;;19.70;58.70;;;14.88;81.97;95638.56;4978200;28;19917;-49
2022/09/10 07:21:11;;;;;;;;;;;19.80;58.70;;;14.88;82.08;95643.94;4996116;28;19956;-49
2022/09/10 07:23:41;;;;;;;;;;;19.90;58.50;;;15.02;81.86;95645.63;4986437;28;19917;-47
2022/09/10 07:26:16;;;;;;;;;;;20.10;58.40;;;15.19;81.43;95647.75;4992227;28;19960;-52
2022/09/10 07:28:43;;;;;;;;;;;20.30;58.20;;;15.31;80.05;95649.22;4992905;28;19913;-51
2022/09/10 07:31:19;;;;;;;;;;;20.50;58.00;;;15.68;79.33;95651.84;4977331;28;19909;-45
2022/09/10 07:33:46;;;;;;;;;;;20.90;57.80;;;15.75;78.11;95656.03;4974598;28;19909;-46
2022/09/10 07:36:13;;;;;;;;;;;21.00;57.60;;;15.78;77.94;95664.28;4967423;28;20383;-45
2022/09/10 07:38:41;;;;;;;;;;;21.10;57.40;;;15.71;77.92;95661.19;4976005;28;20624;-46
2022/09/10 07:41:13;;;;;;;;;;;21.20;57.10;;;15.77;78.11;95664.59;4996591;28;19917;-46
2022/09/10 07:43:42;;;;;;;;;;;21.30;56.90;;;16.03;77.19;95664.94;4991192;28;19921;-47
2022/09/10 07:46:19;;;;;;;;;;;21.50;56.80;;;15.91;75.88;95674.25;4989097;28;20284;-48
2022/09/10 07:48:52;;;;;;;;;;;21.50;56.60;;;15.95;77.08;95672.59;4976674;28;19947;-48
2022/09/10 07:51:18;;;;;;;;;;;21.60;56.30;;;16.08;77.37;95675.59;4980408;28;19913;-48
2022/09/10 07:53:52;;;;;;;;;;;21.60;56.10;;;16.32;76.93;95670.81;4973762;28;19923;-47
2022/09/10 07:56:17;;;;;;;;;;;21.80;56.00;;;16.46;75.65;95675.41;4986792;28;19984;-46
2022/09/10 07:58:43;;;;;;;;;;;22.00;56.00;;;16.60;76.09;95673.50;4979524;28;20396;-46
2022/09/10 08:01:11;;;;;;;;;;;22.10;55.70;;;16.60;73.63;95679.66;4977530;28;20015;-45
2022/09/10 08:03:38;;;;;;;;;;;22.40;55.50;;;16.61;74.53;95675.09;4970960;28;19992;-49
2022/09/10 08:06:08;;;;;;;;;;;22.50;55.20;;;16.89;73.23;95681.25;4989607;28;19960;-50
2022/09/10 08:08:37;;;;;;;;;;;22.60;55.10;;;16.84;73.22;95678.69;4987542;28;19916;-46
2022/09/10 08:11:13;;;;;;;;;;;22.60;54.90;;;16.75;73.21;95677.78;4992893;28;19944;-46
2022/09/10 08:13:44;;;;;;;;;;;22.50;54.80;;;16.63;72.98;95691.72;4980575;28;19913;-46
2022/09/10 08:16:14;;;;;;;;;;;22.40;54.70;;;16.62;73.12;95684.75;4993351;28;20394;-45
2022/09/10 08:18:43;;;;;;;;;;;22.30;54.60;;;16.66;72.59;95680.38;4983214;28;19988;-47
2022/09/10 08:21:09;;;;;;;;;;;22.20;54.60;;;16.60;72.81;95695.81;4992837;28;20368;-47
2022/09/10 08:23:38;;;;;;;;;;;22.10;54.60;;;16.31;72.89;95688.03;4968116;28;19917;-52
2022/09/10 08:26:06;;;;;;;;;;;22.00;54.60;;;16.31;73.39;95696.09;4986201;28;19932;-48
2022/09/10 08:28:33;;;;;;;;;;;22.00;54.50;;;16.40;73.36;95691.63;4979833;28;19909;-51
2022/09/10 08:31:08;;;;;;;;;;;22.00;54.30;;;16.37;73.33;95689.53;4951821;28;20295;-46
2022/09/10 08:33:39;;;;;;;;;;;22.00;54.20;;;16.45;72.94;95693.41;4973943;28;20380;-46
2022/09/10 08:36:09;;;;;;;;;;;22.00;54.10;;;16.58;72.79;95691.84;4992002;28;19909;-46
2022/09/10 08:38:38;;;;;;;;;;;22.10;54.20;;;16.64;71.89;95694.13;4988379;28;19913;-46
2022/09/10 08:41:40;;;;;;;;;;;22.10;54.10;;;16.62;71.26;95693.63;4975471;28;20353;-52
2022/09/10 08:44:40;;;;;;;;;;;22.10;54.00;;;16.55;71.56;95690.53;4975502;28;19952;-55
2022/09/10 08:47:19;;;;;;;;;;;22.10;54.00;;;16.62;71.19;95701.69;4969149;28;19924;-45
2022/09/10 08:49:56;;;;;;;;;;;22.00;54.00;;;16.57;71.16;95704.47;4991419;28;19917;-57
2022/09/10 08:52:45;;;;;;;;;;;22.00;54.00;;;16.54;71.72;95701.59;5007142;28;19909;-54
2022/09/10 08:55:17;;;;;;;;;;;22.00;53.90;;;16.47;70.93;95703.88;5007776;28;19908;-55
2022/09/10 08:58:17;;;;;;;;;;;22.00;53.70;;;16.62;71.06;95708.97;5006283;28;20410;-52
2022/09/10 09:00:45;;;;;;;;;;;22.10;53.40;;;16.71;70.98;95717.13;5009870;28;20368;-47
2022/09/10 09:03:41;;;;;;;;;;;22.30;53.30;;;16.77;69.65;95715.97;4991858;28;19909;-46
2022/09/10 09:06:26;;;;;;;;;;;22.50;53.20;;;16.80;70.11;95709.97;4994435;28;20525;-45
2022/09/10 09:08:57;;;;;;;;;;;22.50;52.80;;;16.94;69.86;95720.72;4982319;28;20366;-45
2022/09/10 09:12:02;;;;;;;;;;;22.60;52.80;;;17.18;69.68;95723.16;4991091;28;19916;-49
2022/09/10 09:15:03;;;;;;;;;;;22.70;52.80;;;17.32;69.17;95718.53;4992660;28;20388;-46
2022/09/10 09:18:15;;;;;;;;;;;22.90;52.90;;;17.40;67.01;95715.13;5002510;28;19913;-46
2022/09/10 09:20:51;;;;;;;;;;;23.00;52.60;;;17.31;66.98;95706.19;4992087;28;20000;-46
2022/09/10 09:23:28;;;;;;;;;;;23.20;52.10;;;17.24;66.64;95711.19;4980875;28;19999;-46
2022/09/10 09:26:11;;;;;;;;;;;23.40;51.80;;;17.38;67.68;95711.13;5003651;28;20011;-46
2022/09/10 09:29:10;;;;;;;;;;;23.50;51.40;;;17.68;66.81;95715.81;5010786;28;20389;-50
2022/09/10 09:31:49;;;;;;;;;;;23.80;51.20;;;17.77;65.18;95707.84;4991913;28;19952;-48
2022/09/10 09:34:41;;;;;;;;;;;24.10;50.80;;;18.04;64.61;95717.66;4990079;28;20338;-53
2022/09/10 09:37:20;;;;;;;;;;;24.20;50.60;;;18.15;63.97;95704.72;4994494;28;19963;-49
2022/09/10 09:40:18;;;;;;;;;;;24.40;50.40;;;18.29;63.13;95708.09;4976481;28;19913;-51
2022/09/10 09:43:10;;;;;;;;;;;24.50;50.30;;;18.44;63.71;95710.38;4979621;28;20364;-46
2022/09/10 09:45:43;;;;;;;;;;;24.50;50.20;;;18.39;61.43;95707.03;4994176;28;19920;-46
2022/09/10 09:48:19;;;;;;;;;;;24.40;50.20;;;18.07;62.43;95700.84;4978435;28;19912;-46
2022/09/10 09:50:55;;;;;;;;;;;24.20;50.20;;;17.85;62.77;95704.38;5002564;28;19916;-47
2022/09/10 09:53:25;;;;;;;;;;;24.00;50.00;;;17.94;64.15;95702.53;4996181;28;19913;-46
2022/09/10 09:55:59;;;;;;;;;;;23.70;50.10;;;18.02;66.59;95709.09;5011114;28;19908;-46
2022/09/10 09:58:39;;;;;;;;;;;23.60;50.40;;;17.79;68.81;95705.59;4982473;28;19959;-47
2022/09/10 10:01:04;;;;;;;;;;;23.30;50.40;;;17.60;72.90;95710.34;4993741;28;20363;-46
2022/09/10 10:03:50;;;;;;;;;;;23.10;50.70;;;17.47;73.56;95706.63;5007520;28;19909;-46
2022/09/10 10:06:53;;;;;;;;;;;22.90;51.00;;;17.47;75.24;95699.34;4994859;28;20128;-51
2022/09/10 10:09:34;;;;;;;;;;;22.80;51.20;;;17.41;74.81;95703.25;4983834;28;19908;-45
2022/09/10 10:12:06;;;;;;;;;;;22.80;51.50;;;17.32;73.27;95700.47;5010377;28;19960;-51
2022/09/10 10:14:38;;;;;;;;;;;22.80;51.60;;;17.16;73.88;95701.13;4993600;28;20294;-45
2022/09/10 10:17:40;;;;;;;;;;;22.70;51.60;;;16.93;73.01;95700.31;5001261;28;20011;-46
2022/09/10 10:20:10;;;;;;;;;;;22.60;51.70;;;16.72;73.77;95708.75;4993455;28;19924;-48
2022/09/10 10:22:42;;;;;;;;;;;22.40;51.90;;;16.62;75.16;95703.59;4991578;28;19913;-46
2022/09/10 10:25:28;;;;;;;;;;;22.30;52.00;;;16.50;73.14;95695.22;5009267;28;20592;-48
2022/09/10 10:27:55;;;;;;;;;;;22.30;52.00;;;16.72;74.51;95694.50;5009661;28;19948;-47
2022/09/10 10:30:23;;;;;;;;;;;22.40;52.10;;;17.00;74.64;95696.09;4993068;28;20224;-46
2022/09/10 10:33:00;;;;;;;;;;;22.50;52.10;;;17.20;72.92;95694.03;5010707;28;20363;-48
2022/09/10 10:36:06;;;;;;;;;;;22.80;52.10;;;17.18;70.35;95688.97;4993499;28;20276;-48
2022/09/10 10:38:47;;;;;;;;;;;22.90;52.00;;;17.46;69.59;95688.88;5009725;28;19940;-46
2022/09/10 10:41:52;;;;;;;;;;;23.10;51.90;;;17.64;68.53;95687.88;4975997;28;20003;-48
2022/09/10 10:44:31;;;;;;;;;;;23.20;51.80;;;17.70;65.85;95691.25;4995075;28;19909;-46
2022/09/10 10:47:17;;;;;;;;;;;23.30;51.80;;;17.60;65.42;95684.22;5009191;28;19913;-46
2022/09/10 10:50:27;;;;;;;;;;;23.40;51.30;;;17.73;64.58;95683.34;5010558;28;19909;-46
2022/09/10 10:53:34;;;;;;;;;;;23.60;51.10;;;18.05;64.37;95678.84;5002799;28;19909;-46
2022/09/10 10:56:28;;;;;;;;;;;23.80;50.70;;;18.17;64.71;95687.09;5010509;28;20271;-47
2022/09/10 10:59:45;;;;;;;;;;;24.10;51.10;;;18.18;63.49;95679.84;4982356;28;19925;-48
2022/09/10 11:03:05;;;;;;;;;;;24.20;50.30;;;18.01;63.08;95677.84;4993101;28;19909;-46
2022/09/10 11:05:47;;;;;;;;;;;24.30;50.00;;;18.18;62.28;95683.31;4975635;28;20387;-49
2022/09/10 11:08:36;;;;;;;;;;;24.40;49.60;;;18.39;62.73;95691.66;4993551;28;20343;-49
2022/09/10 11:11:42;;;;;;;;;;;24.40;49.60;;;18.21;67.17;95690.78;4986625;28;19909;-47
2022/09/10 11:14:44;;;;;;;;;;;24.20;49.60;;;17.84;71.22;95686.63;4948820;28;19909;-49
2022/09/10 11:17:46;;;;;;;;;;;23.70;49.80;;;17.23;72.45;95688.03;5001076;28;19917;-48
2022/09/10 11:21:05;;;;;;;;;;;23.10;50.20;;;16.79;72.77;95674.19;5008948;28;19936;-51
2022/09/10 11:24:02;;;;;;;;;;;22.60;50.80;;;16.72;76.47;95683.75;4949726;28;19909;-49
2022/09/10 11:26:50;;;;;;;;;;;22.30;50.90;;;16.47;76.70;95691.22;5010785;23;19936;-44
2022/09/10 11:29:40;;;;;;;;;;;22.10;51.40;;;16.35;78.02;95685.56;4984031;28;19942;-48
2022/09/10 11:32:17;;;;;;;;;;;21.80;51.70;;;16.40;77.34;95680.88;4993884;28;19913;-44
2022/09/10 11:35:04;;;;;;;;;;;21.70;52.10;;;16.45;79.28;95679.19;4991255;28;19910;-43
2022/09/10 11:37:52;;;;;;;;;;;21.70;52.40;;;16.49;77.54;95674.81;4974628;28;19921;-45
2022/09/10 11:40:54;;;;;;;;;;;21.80;52.60;;;16.53;77.62;95684.66;4970030;28;19910;-43
2022/09/10 11:43:42;;;;;;;;;;;21.80;52.90;;;16.54;76.71;95683.56;4969923;28;20095;-48
2022/09/10 11:46:37;;;;;;;;;;;21.80;52.90;;;16.69;78.13;95673.59;4970783;28;20423;-47
2022/09/10 11:49:12;;;;;;;;;;;21.90;53.00;;;16.90;76.66;95682.06;4965148;28;20037;-43
2022/09/10 11:51:40;;;;;;;;;;;22.00;53.20;;;17.17;76.20;95675.81;4964510;28;19914;-46
2022/09/10 11:54:17;;;;;;;;;;;22.20;53.30;;;17.64;74.73;95666.34;4970928;28;19957;-44